Time;durP1;ratioP1;P1;durP2;ratioP2;P2;SDS_P1;SDS_P2;PMS_P1;PMS_P2;Temp;Humidity;BMP_temperature;BMP_pressure;BME280_temperature;BME280_humidity;BME280_pressure;Samples;Min_cycle;Max_cycle;Signal;HPM_P1;HPM_P2
2023/02/06 00:01:26;;;;;;;31.40;17.35;;;;;;;;;;4998816;28;20033;-61
2023/02/06 00:03:52;;;;;;;38.67;18.45;;;;;;;;;;5014079;28;20037;-60
2023/02/06 00:06:17;;;;;;;35.15;18.55;;;;;;;;;;4999165;28;20628;-60
2023/02/06 00:08:43;;;;;;;34.63;18.08;;;;;;;;;;5002510;28;20114;-61
2023/02/06 00:11:10;;;;;;;35.95;17.90;;;;;;;;;;4997597;28;20034;-61
2023/02/06 00:13:35;;;;;;;29.13;17.23;;;;;;;;;;5015974;28;20081;-61
2023/02/06 00:16:01;;;;;;;38.28;17.65;;;;;;;;;;5001973;28;20740;-60
2023/02/06 00:18:26;;;;;;;34.45;18.88;;;;;;;;;;5000135;28;20389;-61
2023/02/06 00:20:51;;;;;;;34.45;18.08;;;;;;;;;;5007616;28;20473;-60
2023/02/06 00:23:17;;;;;;;36.17;18.33;;;;;;;;;;5002874;28;20044;-61
2023/02/06 00:25:42;;;;;;;38.80;18.80;;;;;;;;;;4996951;28;20321;-60
2023/02/06 00:28:07;;;;;;;36.13;19.27;;;;;;;;;;5003932;28;20061;-60
2023/02/06 00:30:33;;;;;;;35.63;18.70;;;;;;;;;;4993567;28;20042;-60
2023/02/06 00:32:58;;;;;;;36.10;18.60;;;;;;;;;;5008187;28;20111;-60
2023/02/06 00:35:23;;;;;;;33.42;17.85;;;;;;;;;;5002684;28;20072;-61
2023/02/06 00:37:49;;;;;;;38.33;18.90;;;;;;;;;;5002300;28;20479;-60
2023/02/06 00:40:15;;;;;;;36.90;18.90;;;;;;;;;;4993476;28;20390;-60
2023/02/06 00:42:40;;;;;;;33.97;18.35;;;;;;;;;;5000807;28;20041;-60
2023/02/06 00:45:06;;;;;;;37.22;18.70;;;;;;;;;;5006301;28;20406;-60
2023/02/06 00:47:31;;;;;;;37.55;19.42;;;;;;;;;;4999532;28;20120;-61
2023/02/06 00:49:57;;;;;;;32.75;17.88;;;;;;;;;;4999187;28;20022;-61
2023/02/06 00:52:22;;;;;;;41.63;19.77;;;;;;;;;;5004401;28;20041;-61
2023/02/06 00:54:47;;;;;;;33.75;18.52;;;;;;;;;;4996021;28;20282;-61
2023/02/06 00:57:12;;;;;;;36.95;18.67;;;;;;;;;;5005924;28;20741;-60
2023/02/06 00:59:39;;;;;;;37.30;19.95;;;;;;;;;;4996996;28;20034;-60
2023/02/06 01:02:05;;;;;;;35.67;18.88;;;;;;;;;;5000955;28;20042;-61
2023/02/06 01:04:30;;;;;;;34.33;18.42;;;;;;;;;;5006152;28;20038;-61
2023/02/06 01:06:55;;;;;;;42.40;19.67;;;;;;;;;;4997506;28;20040;-61
2023/02/06 01:09:21;;;;;;;41.55;21.05;;;;;;;;;;5008324;28;20034;-61
2023/02/06 01:11:47;;;;;;;34.97;18.67;;;;;;;;;;4997638;28;20029;-61
2023/02/06 01:14:12;;;;;;;35.67;18.77;;;;;;;;;;4997474;28;20052;-61
2023/02/06 01:16:37;;;;;;;33.92;18.60;;;;;;;;;;5002973;28;20154;-61
2023/02/06 01:19:03;;;;;;;37.53;18.60;;;;;;;;;;4998118;28;20061;-60
2023/02/06 01:21:31;;;;;;;32.72;17.95;;;;;;;;;;5001806;28;20129;-61
2023/02/06 01:23:56;;;;;;;35.38;18.90;;;;;;;;;;4998918;28;20027;-61
2023/02/06 01:26:23;;;;;;;34.50;19.08;;;;;;;;;;5002060;28;20441;-60
2023/02/06 01:28:48;;;;;;;37.58;19.27;;;;;;;;;;5002529;28;20030;-60
2023/02/06 01:31:13;;;;;;;33.58;18.20;;;;;;;;;;4998085;28;20075;-61
2023/02/06 01:33:39;;;;;;;40.15;20.52;;;;;;;;;;5004122;28;20030;-61
2023/02/06 01:36:04;;;;;;;39.85;20.17;;;;;;;;;;4993183;28;20068;-60
2023/02/06 01:38:29;;;;;;;38.95;20.38;;;;;;;;;;5000208;28;20477;-61
2023/02/06 01:40:58;;;;;;;37.78;19.95;;;;;;;;;;5002400;28;20496;-60
2023/02/06 01:43:29;;;;;;;37.90;19.92;;;;;;;;;;4987543;28;20034;-60
2023/02/06 01:45:54;;;;;;;38.15;19.63;;;;;;;;;;5000441;28;20030;-60
2023/02/06 01:48:22;;;;;;;42.92;20.73;;;;;;;;;;4996717;28;20797;-60
2023/02/06 01:50:47;;;;;;;;;;;;;;;;;;4997188;28;20029;-60
2023/02/06 01:53:15;;;;;;;35.57;18.33;;;;;;;;;;5002522;28;19917;-60
2023/02/06 01:55:41;;;;;;;46.60;21.50;;;;;;;;;;4994749;28;20041;-60
2023/02/06 01:58:10;;;;;;;45.47;22.10;;;;;;;;;;4992300;28;20499;-61
2023/02/06 02:00:35;;;;;;;46.28;22.35;;;;;;;;;;5016777;28;20038;-61
2023/02/06 02:03:01;;;;;;;47.90;21.75;;;;;;;;;;4996742;28;20415;-60
2023/02/06 02:05:27;;;;;;;42.00;21.85;;;;;;;;;;5005006;28;20415;-61
2023/02/06 02:08:00;;;;;;;43.05;22.05;;;;;;;;;;4996555;28;20038;-61
2023/02/06 02:10:29;;;;;;;41.75;21.48;;;;;;;;;;5014090;28;20086;-60
2023/02/06 02:12:54;;;;;;;44.28;21.73;;;;;;;;;;5016003;28;20038;-61
2023/02/06 02:15:23;;;;;;;42.80;22.05;;;;;;;;;;4996872;28;20042;-61
2023/02/06 02:17:48;;;;;;;43.20;23.02;;;;;;;;;;5010702;28;20554;-61
2023/02/06 02:20:20;;;;;;;44.83;23.55;;;;;;;;;;4996757;28;20036;-61
2023/02/06 02:22:50;;;;;;;40.03;22.98;;;;;;;;;;4996472;28;20725;-61
2023/02/06 02:25:24;;;;;;;46.13;24.42;;;;;;;;;;5005015;28;20025;-61
2023/02/06 02:27:52;;;;;;;46.10;23.83;;;;;;;;;;4996858;28;20141;-60
2023/02/06 02:30:23;;;;;;;48.40;24.02;;;;;;;;;;5003800;28;20505;-61
2023/02/06 02:33:07;;;;;;;45.28;23.98;;;;;;;;;;4997502;28;20032;-61
2023/02/06 02:35:56;;;;;;;48.03;24.92;;;;;;;;;;4989980;28;20034;-60
2023/02/06 02:38:28;;;;;;;49.70;25.05;;;;;;;;;;4995813;28;20096;-61
2023/02/06 02:40:57;;;;;;;47.33;24.15;;;;;;;;;;5001686;28;20144;-60
2023/02/06 02:43:34;;;;;;;41.15;23.08;;;;;;;;;;4990485;28;20026;-61
2023/02/06 02:46:19;;;;;;;42.15;23.02;;;;;;;;;;4999945;28;20041;-61
2023/02/06 02:48:47;;;;;;;43.00;22.88;;;;;;;;;;4998872;28;20786;-61
2023/02/06 02:51:12;;;;;;;45.70;24.60;;;;;;;;;;5003213;28;20033;-61
2023/02/06 02:53:38;;;;;;;42.67;23.75;;;;;;;;;;5010340;28;20063;-60
2023/02/06 02:56:21;;;;;;;42.90;23.45;;;;;;;;;;5001233;28;20766;-61
2023/02/06 02:58:49;;;;;;;41.58;22.38;;;;;;;;;;4981148;28;20042;-61
2023/02/06 03:01:18;;;;;;;43.17;22.38;;;;;;;;;;5004412;28;20159;-60
2023/02/06 03:03:45;;;;;;;45.38;24.60;;;;;;;;;;4997259;28;20032;-60
2023/02/06 03:06:10;;;;;;;51.33;25.55;;;;;;;;;;4999580;28;20083;-60
2023/02/06 03:08:36;;;;;;;49.35;26.50;;;;;;;;;;5001239;28;20046;-60
2023/02/06 03:11:08;;;;;;;49.97;27.30;;;;;;;;;;4991181;28;20037;-60
2023/02/06 03:13:37;;;;;;;49.13;28.45;;;;;;;;;;5004216;28;20030;-60
2023/02/06 03:16:23;;;;;;;54.92;28.23;;;;;;;;;;5003559;28;20404;-61
2023/02/06 03:18:51;;;;;;;51.10;26.73;;;;;;;;;;5002102;28;20883;-61
2023/02/06 03:21:18;;;;;;;50.55;26.02;;;;;;;;;;4993111;28;20033;-61
2023/02/06 03:23:44;;;;;;;47.17;25.50;;;;;;;;;;4999173;28;20022;-60
2023/02/06 03:26:12;;;;;;;53.30;27.75;;;;;;;;;;5006181;28;20525;-61
2023/02/06 03:28:41;;;;;;;46.25;26.05;;;;;;;;;;4999981;28;20051;-60
2023/02/06 03:31:09;;;;;;;49.58;27.02;;;;;;;;;;4998963;28;20044;-61
2023/02/06 03:33:36;;;;;;;50.17;25.95;;;;;;;;;;5008378;28;20528;-61
2023/02/06 03:36:04;;;;;;;43.95;25.92;;;;;;;;;;5000215;28;20033;-61
2023/02/06 03:38:32;;;;;;;44.60;26.00;;;;;;;;;;5005738;28;20710;-60
2023/02/06 03:40:59;;;;;;;45.53;25.98;;;;;;;;;;5003054;28;20100;-61
2023/02/06 03:43:25;;;;;;;45.65;24.90;;;;;;;;;;4999929;28;20145;-60
2023/02/06 03:45:53;;;;;;;45.58;24.20;;;;;;;;;;5004587;28;20489;-60
2023/02/06 03:48:40;;;;;;;38.75;23.35;;;;;;;;;;4998294;28;20029;-61
2023/02/06 03:51:11;;;;;;;39.20;24.27;;;;;;;;;;5002300;28;20041;-63
2023/02/06 03:53:37;;;;;;;41.25;23.65;;;;;;;;;;5004358;28;20518;-60
2023/02/06 03:56:07;;;;;;;43.95;23.83;;;;;;;;;;4995871;28;20123;-60
2023/02/06 03:58:33;;;;;;;43.92;24.35;;;;;;;;;;5001022;28;20049;-60
2023/02/06 04:00:59;;;;;;;41.00;23.23;;;;;;;;;;4997129;28;20034;-60
2023/02/06 04:03:24;;;;;;;37.60;23.25;;;;;;;;;;4993866;28;20065;-61
2023/02/06 04:05:49;;;;;;;41.55;24.52;;;;;;;;;;5001108;28;20038;-60
2023/02/06 04:08:15;;;;;;;44.92;24.88;;;;;;;;;;4993396;28;20144;-60
2023/02/06 04:10:40;;;;;;;49.20;28.50;;;;;;;;;;5003000;28;20095;-60
2023/02/06 04:13:05;;;;;;;47.40;26.38;;;;;;;;;;4999453;28;20108;-60
2023/02/06 04:15:31;;;;;;;45.60;27.02;;;;;;;;;;5011157;28;20322;-60
2023/02/06 04:17:56;;;;;;;45.25;25.48;;;;;;;;;;5009780;28;20044;-60
2023/02/06 04:20:21;;;;;;;47.67;26.15;;;;;;;;;;5001175;28;20037;-61
2023/02/06 04:22:46;;;;;;;43.40;26.13;;;;;;;;;;5008319;28;20109;-60
2023/02/06 04:25:12;;;;;;;42.17;25.13;;;;;;;;;;4995410;28;20152;-60
2023/02/06 04:27:37;;;;;;;45.38;26.15;;;;;;;;;;4997889;28;20114;-60
2023/02/06 04:30:03;;;;;;;46.92;26.27;;;;;;;;;;4994715;28;20083;-60
2023/02/06 04:32:28;;;;;;;47.97;27.92;;;;;;;;;;4996829;28;20057;-60
2023/02/06 04:34:53;;;;;;;42.38;25.85;;;;;;;;;;5008342;28;20037;-61
2023/02/06 04:37:19;;;;;;;45.38;26.77;;;;;;;;;;4997896;28;20165;-60
2023/02/06 04:39:45;;;;;;;50.38;30.60;;;;;;;;;;4994807;28;20029;-61
2023/02/06 04:42:14;;;;;;;47.83;27.25;;;;;;;;;;5002275;28;20033;-61
2023/02/06 04:44:39;;;;;;;42.22;24.73;;;;;;;;;;5010740;28;20033;-61
2023/02/06 04:47:04;;;;;;;44.08;25.67;;;;;;;;;;5005684;28;20033;-60
2023/02/06 04:49:30;;;;;;;46.53;26.63;;;;;;;;;;4998431;28;20026;-61
2023/02/06 04:51:55;;;;;;;43.20;25.33;;;;;;;;;;4996606;28;20033;-61
2023/02/06 04:54:20;;;;;;;50.10;26.25;;;;;;;;;;5007447;28;20029;-61
2023/02/06 04:56:46;;;;;;;43.28;25.67;;;;;;;;;;5002626;28;20041;-60
2023/02/06 04:59:12;;;;;;;42.13;24.25;;;;;;;;;;5003884;28;20057;-61
2023/02/06 05:01:37;;;;;;;44.13;26.38;;;;;;;;;;4996375;28;20057;-60
2023/02/06 05:04:02;;;;;;;43.90;25.85;;;;;;;;;;4996607;28;20737;-60
2023/02/06 05:06:28;;;;;;;45.15;26.50;;;;;;;;;;5012143;28;20459;-60
2023/02/06 05:08:54;;;;;;;50.75;26.15;;;;;;;;;;4994953;28;20037;-60
2023/02/06 05:11:19;;;;;;;49.63;26.13;;;;;;;;;;5006999;28;20121;-61
2023/02/06 05:13:44;;;;;;;48.80;27.52;;;;;;;;;;4997308;28;20029;-60
2023/02/06 05:16:11;;;;;;;47.53;27.58;;;;;;;;;;4996203;28;20047;-61
2023/02/06 05:18:37;;;;;;;47.90;27.00;;;;;;;;;;5007247;28;20485;-61
2023/02/06 05:21:02;;;;;;;42.63;26.90;;;;;;;;;;4998437;28;20033;-60
2023/02/06 05:23:28;;;;;;;48.90;27.02;;;;;;;;;;5003472;28;20466;-61
2023/02/06 05:25:53;;;;;;;43.97;25.88;;;;;;;;;;4993339;28;20045;-60
2023/02/06 05:28:19;;;;;;;41.83;25.13;;;;;;;;;;4996122;28;20117;-61
2023/02/06 05:30:46;;;;;;;46.15;26.33;;;;;;;;;;5002472;28;20072;-61
2023/02/06 05:33:14;;;;;;;45.67;26.40;;;;;;;;;;5001773;28;20490;-61
2023/02/06 05:35:39;;;;;;;50.92;26.35;;;;;;;;;;5003074;28;20110;-61
2023/02/06 05:38:05;;;;;;;46.30;26.15;;;;;;;;;;5003851;28;20033;-61
2023/02/06 05:40:30;;;;;;;44.03;26.50;;;;;;;;;;4981909;28;20057;-60
2023/02/06 05:42:57;;;;;;;47.00;27.58;;;;;;;;;;5001141;28;20029;-60
2023/02/06 05:45:22;;;;;;;48.95;26.90;;;;;;;;;;4990441;28;20034;-60
2023/02/06 05:47:48;;;;;;;44.90;26.73;;;;;;;;;;5006996;28;20034;-61
2023/02/06 05:50:13;;;;;;;49.70;27.13;;;;;;;;;;5000000;28;20024;-60
2023/02/06 05:52:38;;;;;;;44.00;25.65;;;;;;;;;;4998619;28;20032;-61
2023/02/06 05:55:04;;;;;;;40.72;25.42;;;;;;;;;;5006404;28;20021;-60
2023/02/06 05:57:32;;;;;;;45.13;26.45;;;;;;;;;;5001093;28;20336;-60
2023/02/06 06:00:00;;;;;;;46.78;27.55;;;;;;;;;;5004162;28;20026;-61
2023/02/06 06:02:25;;;;;;;46.00;26.05;;;;;;;;;;4998436;28;20059;-60
2023/02/06 06:04:50;;;;;;;46.22;25.70;;;;;;;;;;4992711;28;20100;-60
2023/02/06 06:07:15;;;;;;;46.10;25.75;;;;;;;;;;5000823;28;20048;-61
2023/02/06 06:09:41;;;;;;;46.67;27.80;;;;;;;;;;4989481;28;20022;-61
2023/02/06 06:12:06;;;;;;;45.47;26.05;;;;;;;;;;4998049;28;20034;-60
2023/02/06 06:14:31;;;;;;;43.40;24.45;;;;;;;;;;4998032;28;20033;-60
2023/02/06 06:16:57;;;;;;;46.30;25.80;;;;;;;;;;4997184;28;20026;-60
2023/02/06 06:19:22;;;;;;;46.35;24.85;;;;;;;;;;5004690;28;20031;-62
2023/02/06 06:21:47;;;;;;;48.75;24.73;;;;;;;;;;4999333;28;20027;-59
2023/02/06 06:24:13;;;;;;;46.45;23.85;;;;;;;;;;5015052;28;20074;-62
2023/02/06 06:26:38;;;;;;;39.92;23.08;;;;;;;;;;4997076;28;20029;-59
2023/02/06 06:29:04;;;;;;;42.42;23.08;;;;;;;;;;5000335;28;20050;-60
2023/02/06 06:31:29;;;;;;;42.90;24.20;;;;;;;;;;5004289;28;20044;-60
2023/02/06 06:33:54;;;;;;;42.03;23.25;;;;;;;;;;4993815;28;20033;-60
2023/02/06 06:36:20;;;;;;;37.15;22.40;;;;;;;;;;5009272;28;20489;-60
2023/02/06 06:38:45;;;;;;;39.60;23.25;;;;;;;;;;4992518;28;20109;-60
2023/02/06 06:41:10;;;;;;;38.83;22.08;;;;;;;;;;4995997;28;20026;-61
2023/02/06 06:43:36;;;;;;;38.75;21.77;;;;;;;;;;5003969;28;20034;-61
2023/02/06 06:46:03;;;;;;;40.08;21.33;;;;;;;;;;4991296;28;20048;-62
2023/02/06 06:48:28;;;;;;;33.80;18.90;;;;;;;;;;4997564;28;20060;-62
2023/02/06 06:50:54;;;;;;;32.35;17.63;;;;;;;;;;4996023;28;20479;-61
2023/02/06 06:53:19;;;;;;;27.63;15.88;;;;;;;;;;4996312;28;20033;-61
2023/02/06 06:55:44;;;;;;;28.58;14.25;;;;;;;;;;5002416;28;20463;-60
2023/02/06 06:58:10;;;;;;;21.52;12.82;;;;;;;;;;4981367;28;20033;-60
2023/02/06 07:00:35;;;;;;;20.02;12.13;;;;;;;;;;5001094;28;20030;-60
2023/02/06 07:03:01;;;;;;;19.95;12.55;;;;;;;;;;4996160;28;20025;-60
2023/02/06 07:05:26;;;;;;;20.80;10.63;;;;;;;;;;5003636;28;20058;-60
2023/02/06 07:07:51;;;;;;;21.45;12.32;;;;;;;;;;5000066;28;20037;-60
2023/02/06 07:10:20;;;;;;;19.75;11.60;;;;;;;;;;4999511;28;20076;-61
2023/02/06 07:12:45;;;;;;;21.38;10.75;;;;;;;;;;5001106;28;20072;-61
2023/02/06 07:15:11;;;;;;;18.88;11.13;;;;;;;;;;4992628;28;20132;-60
2023/02/06 07:17:36;;;;;;;18.60;10.43;;;;;;;;;;5000232;28;20058;-61
2023/02/06 07:20:02;;;;;;;17.60;11.15;;;;;;;;;;4999704;28;20133;-61
2023/02/06 07:22:27;;;;;;;21.73;10.80;;;;;;;;;;4999646;28;20111;-60
2023/02/06 07:24:52;;;;;;;19.35;11.07;;;;;;;;;;5006300;28;20065;-61
2023/02/06 07:27:18;;;;;;;19.83;12.32;;;;;;;;;;4995178;28;20032;-59
2023/02/06 07:29:43;;;;;;;21.95;11.57;;;;;;;;;;4997304;28;20521;-60
2023/02/06 07:32:11;;;;;;;20.70;12.00;;;;;;;;;;5001769;28;20038;-59
2023/02/06 07:34:37;;;;;;;19.35;11.32;;;;;;;;;;5000255;28;20377;-59
2023/02/06 07:37:02;;;;;;;20.17;12.00;;;;;;;;;;5002105;28;20037;-60
2023/02/06 07:39:28;;;;;;;21.05;12.05;;;;;;;;;;5000654;28;20041;-60
2023/02/06 07:41:53;;;;;;;21.67;12.75;;;;;;;;;;4992954;28;20029;-59
2023/02/06 07:44:19;;;;;;;22.65;12.60;;;;;;;;;;5003314;28;20038;-59
2023/02/06 07:46:45;;;;;;;20.83;12.27;;;;;;;;;;4992928;28;20045;-60
2023/02/06 07:49:11;;;;;;;21.98;12.52;;;;;;;;;;4997618;28;21209;-60
2023/02/06 07:51:37;;;;;;;23.13;13.00;;;;;;;;;;5004727;28;20037;-60
2023/02/06 07:54:06;;;;;;;24.17;13.57;;;;;;;;;;5011721;28;20072;-60
2023/02/06 07:56:32;;;;;;;22.92;13.05;;;;;;;;;;5005824;28;20068;-61
2023/02/06 07:58:57;;;;;;;22.30;12.10;;;;;;;;;;4993436;28;20112;-61
2023/02/06 08:01:23;;;;;;;18.52;11.30;;;;;;;;;;4998138;28;20044;-61
2023/02/06 08:03:49;;;;;;;23.27;12.75;;;;;;;;;;5002558;28;20477;-61
2023/02/06 08:06:15;;;;;;;20.90;12.27;;;;;;;;;;5007824;28;20063;-60
2023/02/06 08:08:40;;;;;;;22.95;13.02;;;;;;;;;;5006061;28;20153;-60
2023/02/06 08:11:07;;;;;;;22.85;12.18;;;;;;;;;;4998356;28;20039;-60
2023/02/06 08:13:32;;;;;;;21.27;12.27;;;;;;;;;;4995871;28;20049;-60
2023/02/06 08:15:58;;;;;;;22.83;11.57;;;;;;;;;;5001911;28;20113;-60
2023/02/06 08:18:23;;;;;;;20.38;11.27;;;;;;;;;;4998808;28;20064;-60
2023/02/06 08:20:48;;;;;;;22.58;11.65;;;;;;;;;;5002654;28;20760;-60
2023/02/06 08:23:13;;;;;;;17.85;10.82;;;;;;;;;;4996871;28;20117;-60
2023/02/06 08:25:39;;;;;;;20.88;11.27;;;;;;;;;;4999192;28;20030;-60
2023/02/06 08:28:04;;;;;;;23.85;12.05;;;;;;;;;;5004848;28;20562;-61
2023/02/06 08:30:31;;;;;;;22.83;12.10;;;;;;;;;;4996789;28;20022;-60
2023/02/06 08:32:56;;;;;;;19.95;12.13;;;;;;;;;;5000205;28;20038;-61
2023/02/06 08:35:21;;;;;;;24.35;12.70;;;;;;;;;;4994120;28;20518;-60
2023/02/06 08:37:47;;;;;;;21.40;12.65;;;;;;;;;;4999431;28;20037;-60
2023/02/06 08:40:12;;;;;;;21.02;12.70;;;;;;;;;;5002892;28;20038;-60
2023/02/06 08:42:38;;;;;;;21.25;11.30;;;;;;;;;;4997858;28;20048;-60
2023/02/06 08:45:03;;;;;;;19.27;10.15;;;;;;;;;;4997606;28;20030;-61
2023/02/06 08:47:29;;;;;;;19.20;9.88;;;;;;;;;;4995314;28;20068;-60
2023/02/06 08:49:55;;;;;;;12.20;8.20;;;;;;;;;;4995236;28;20113;-60
2023/02/06 08:52:23;;;;;;;14.82;8.50;;;;;;;;;;4998078;28;20032;-60
2023/02/06 08:54:49;;;;;;;15.40;9.38;;;;;;;;;;4998642;28;20056;-60
2023/02/06 08:57:15;;;;;;;17.53;9.03;;;;;;;;;;5012258;28;20044;-61
2023/02/06 08:59:40;;;;;;;14.20;8.70;;;;;;;;;;4998404;28;20034;-61
2023/02/06 09:02:05;;;;;;;15.48;8.60;;;;;;;;;;5012256;28;20503;-61
2023/02/06 09:04:31;;;;;;;18.45;10.35;;;;;;;;;;5005438;28;20030;-61
2023/02/06 09:06:56;;;;;;;15.02;9.32;;;;;;;;;;4994917;28;20428;-61
2023/02/06 09:09:22;;;;;;;17.85;10.70;;;;;;;;;;4999165;28;20337;-61
2023/02/06 09:11:47;;;;;;;21.55;10.95;;;;;;;;;;4994696;28;20014;-61
2023/02/06 09:14:13;;;;;;;19.23;10.57;;;;;;;;;;5002493;28;20029;-61
2023/02/06 09:16:39;;;;;;;20.20;11.38;;;;;;;;;;5006898;28;20041;-60
2023/02/06 09:19:05;;;;;;;28.58;11.43;;;;;;;;;;4996975;28;20021;-61
2023/02/06 09:21:32;;;;;;;22.33;12.40;;;;;;;;;;5003478;28;20509;-61
2023/02/06 09:23:59;;;;;;;26.88;12.23;;;;;;;;;;5003691;28;20030;-61
2023/02/06 09:26:25;;;;;;;21.73;12.55;;;;;;;;;;5005585;28;20076;-61
2023/02/06 09:28:56;;;;;;;22.67;12.37;;;;;;;;;;5002061;28;20032;-61
2023/02/06 09:31:21;;;;;;;31.80;15.38;;;;;;;;;;4999325;28;20038;-61
2023/02/06 09:33:47;;;;;;;22.73;12.63;;;;;;;;;;5001625;28;20099;-61
2023/02/06 09:36:13;;;;;;;23.35;12.75;;;;;;;;;;4996209;28;20057;-61
2023/02/06 09:38:40;;;;;;;32.30;14.13;;;;;;;;;;5000581;28;20445;-61
2023/02/06 09:41:10;;;;;;;22.75;13.27;;;;;;;;;;5014675;28;20038;-62
2023/02/06 09:43:36;;;;;;;30.42;14.23;;;;;;;;;;4994543;28;20022;-61
2023/02/06 09:46:03;;;;;;;24.73;12.57;;;;;;;;;;5002428;28;20036;-61
2023/02/06 09:48:31;;;;;;;18.70;10.35;;;;;;;;;;4998256;28;20049;-61
2023/02/06 09:51:16;;;;;;;22.33;11.23;;;;;;;;;;4995852;28;20033;-61
2023/02/06 09:53:52;;;;;;;20.63;10.52;;;;;;;;;;5005684;28;20043;-61
2023/02/06 09:56:18;;;;;;;17.83;10.07;;;;;;;;;;4997236;28;20491;-61
2023/02/06 09:58:43;;;;;;;23.73;10.38;;;;;;;;;;4995216;28;20122;-61
2023/02/06 10:01:21;;;;;;;18.02;10.45;;;;;;;;;;5000789;28;20099;-60
2023/02/06 10:03:59;;;;;;;18.55;9.77;;;;;;;;;;4981816;28;20029;-61
2023/02/06 10:06:26;;;;;;;16.08;8.43;;;;;;;;;;4989060;28;20052;-61
2023/02/06 10:08:51;;;;;;;;;;;;;;;;;;5000252;28;20037;-61
2023/02/06 10:11:20;;;;;;;17.80;8.90;;;;;;;;;;4991036;28;19912;-61
2023/02/06 10:13:49;;;;;;;15.75;9.18;;;;;;;;;;5000257;28;20356;-60
2023/02/06 10:16:30;;;;;;;14.23;8.20;;;;;;;;;;5006702;28;20099;-60
2023/02/06 10:18:59;;;;;;;16.38;8.88;;;;;;;;;;4997323;28;20580;-61
2023/02/06 10:21:31;;;;;;;15.00;8.27;;;;;;;;;;5000150;28;20033;-60
2023/02/06 10:24:18;;;;;;;19.77;8.60;;;;;;;;;;4994864;28;20069;-60
2023/02/06 10:26:43;;;;;;;19.98;10.13;;;;;;;;;;4992933;28;20056;-60
2023/02/06 10:29:12;;;;;;;19.67;10.50;;;;;;;;;;5002599;28;20321;-60
2023/02/06 10:31:56;;;;;;;22.35;10.07;;;;;;;;;;4991920;28;20025;-60
2023/02/06 10:34:44;;;;;;;20.92;9.50;;;;;;;;;;4995226;28;20655;-60
2023/02/06 10:37:19;;;;;;;14.25;8.25;;;;;;;;;;5000564;28;20030;-60
2023/02/06 10:40:05;;;;;;;19.77;8.63;;;;;;;;;;4990631;28;20286;-60
2023/02/06 10:42:33;;;;;;;14.65;8.80;;;;;;;;;;5013098;28;20108;-60
2023/02/06 10:45:07;;;;;;;13.27;7.93;;;;;;;;;;4995444;28;20486;-61
2023/02/06 10:47:38;;;;;;;16.60;8.40;;;;;;;;;;4990741;28;20029;-60
2023/02/06 10:50:23;;;;;;;17.55;8.77;;;;;;;;;;4997689;28;20060;-60
2023/02/06 10:52:48;;;;;;;14.60;7.63;;;;;;;;;;4998636;28;20454;-60
2023/02/06 10:55:28;;;;;;;14.70;7.70;;;;;;;;;;4993383;28;20055;-60
2023/02/06 10:58:01;;;;;;;13.85;8.05;;;;;;;;;;5001121;28;20046;-60
2023/02/06 11:00:27;;;;;;;18.08;8.20;;;;;;;;;;4996982;28;20574;-60
2023/02/06 11:02:54;;;;;;;16.52;8.15;;;;;;;;;;4994502;28;20041;-61
2023/02/06 11:05:19;;;;;;;;;;;;;;;;;;5000940;28;20060;-61
2023/02/06 11:07:46;;;;;;;16.63;8.30;;;;;;;;;;4997356;28;20246;-61
2023/02/06 11:10:16;;;;;;;16.85;8.02;;;;;;;;;;5000290;28;20322;-60
2023/02/06 11:13:05;;;;;;;15.50;8.30;;;;;;;;;;4995463;28;20037;-60
2023/02/06 11:15:38;;;;;;;14.48;8.27;;;;;;;;;;4991480;28;20041;-61
2023/02/06 11:18:06;;;;;;;13.50;8.30;;;;;;;;;;5000630;28;20045;-60
2023/02/06 11:20:32;;;;;;;;;;;;;;;;;;4986384;28;20041;-61
2023/02/06 11:23:18;;;;;;;11.43;6.07;;;;;;;;;;5003035;28;19913;-61
2023/02/06 11:25:44;;;;;;;10.50;6.07;;;;;;;;;;5001722;28;20034;-61
2023/02/06 11:28:16;;;;;;;10.90;6.70;;;;;;;;;;4996957;28;20071;-61
2023/02/06 11:30:52;;;;;;;14.73;6.60;;;;;;;;;;4998155;28;21490;-61
2023/02/06 11:33:20;;;;;;;9.57;6.10;;;;;;;;;;4995994;28;20475;-61
2023/02/06 11:35:57;;;;;;;9.73;5.85;;;;;;;;;;5003089;28;20028;-61
2023/02/06 11:38:24;;;;;;;9.75;6.15;;;;;;;;;;5002261;28;20036;-61
2023/02/06 11:40:54;;;;;;;9.43;6.13;;;;;;;;;;4990038;28;21321;-61
2023/02/06 11:43:22;;;;;;;11.88;7.22;;;;;;;;;;4999212;28;20111;-61
2023/02/06 11:45:51;;;;;;;10.48;6.47;;;;;;;;;;5010151;28;20138;-60
2023/02/06 11:48:33;;;;;;;10.40;6.65;;;;;;;;;;4996892;28;20685;-62
2023/02/06 11:50:58;;;;;;;14.60;7.75;;;;;;;;;;5001759;28;20481;-63
2023/02/06 11:53:23;;;;;;;11.80;7.57;;;;;;;;;;4994216;28;20033;-60
2023/02/06 11:56:07;;;;;;;13.02;7.10;;;;;;;;;;4995740;28;20057;-61
2023/02/06 11:58:33;;;;;;;12.90;7.03;;;;;;;;;;5001893;28;20030;-61
2023/02/06 12:01:18;;;;;;;10.15;6.53;;;;;;;;;;4995424;28;20069;-61
2023/02/06 12:03:49;;;;;;;13.45;7.68;;;;;;;;;;4997104;28;20764;-62
2023/02/06 12:06:24;;;;;;;13.50;7.95;;;;;;;;;;5003713;28;20084;-61
2023/02/06 12:08:54;;;;;;;12.43;6.97;;;;;;;;;;4996249;28;20117;-61
2023/02/06 12:11:24;;;;;;;13.40;7.63;;;;;;;;;;4998415;28;20053;-61
2023/02/06 12:13:53;;;;;;;11.82;6.85;;;;;;;;;;4991835;28;20384;-61
2023/02/06 12:16:19;;;;;;;10.38;6.38;;;;;;;;;;4995197;28;20091;-61
2023/02/06 12:18:47;;;;;;;9.68;6.50;;;;;;;;;;5001723;28;20041;-61
2023/02/06 12:21:19;;;;;;;11.85;6.43;;;;;;;;;;4993535;28;20050;-62
2023/02/06 12:23:49;;;;;;;9.80;5.82;;;;;;;;;;4997109;28;20031;-62
2023/02/06 12:26:17;;;;;;;9.40;5.18;;;;;;;;;;4996886;28;20909;-61
2023/02/06 12:29:03;;;;;;;8.82;4.97;;;;;;;;;;4987842;28;20048;-61
2023/02/06 12:31:52;;;;;;;9.65;5.63;;;;;;;;;;4991789;28;20065;-61
2023/02/06 12:34:23;;;;;;;9.43;5.40;;;;;;;;;;5003635;28;20609;-62
2023/02/06 12:37:09;;;;;;;7.20;4.53;;;;;;;;;;4983910;28;20071;-60
2023/02/06 12:39:35;;;;;;;8.18;4.80;;;;;;;;;;5000431;28;20045;-60
2023/02/06 12:42:28;;;;;;;10.05;6.28;;;;;;;;;;4998007;28;20026;-61
2023/02/06 12:44:53;;;;;;;8.68;5.40;;;;;;;;;;4994688;28;20096;-60
2023/02/06 12:47:40;;;;;;;9.15;5.22;;;;;;;;;;5000801;28;20460;-61
2023/02/06 12:50:17;;;;;;;11.02;5.13;;;;;;;;;;4991003;28;20053;-61
2023/02/06 12:53:03;;;;;;;10.25;5.13;;;;;;;;;;4992512;28;20036;-61
2023/02/06 12:55:30;;;;;;;7.50;4.55;;;;;;;;;;4998186;28;20064;-60
2023/02/06 12:57:56;;;;;;;;;;;;;;;;;;5440885;22;20292;-62
2023/02/06 13:00:37;;;;;;;7.47;4.55;;;;;;;;;;4974361;28;20473;-61
2023/02/06 13:03:02;;;;;;;9.88;4.78;;;;;;;;;;4999718;28;20080;-60
2023/02/06 13:05:34;;;;;;;9.02;4.97;;;;;;;;;;4990921;28;20026;-60
2023/02/06 13:08:11;;;;;;;10.27;5.00;;;;;;;;;;5010744;28;20036;-61
2023/02/06 13:10:36;;;;;;;;;;;;;;;;;;4997995;28;20078;-61
2023/02/06 13:13:02;;;;;;;7.50;4.17;;;;;;;;;;4993426;28;19914;-61
2023/02/06 13:15:34;;;;;;;8.13;4.40;;;;;;;;;;4995631;28;20291;-60
2023/02/06 13:17:59;;;;;;;6.38;3.92;;;;;;;;;;4993112;28;20521;-60
2023/02/06 13:20:25;;;;;;;7.53;4.43;;;;;;;;;;4992759;28;21356;-60
2023/02/06 13:22:52;;;;;;;9.10;4.82;;;;;;;;;;4996945;28;20596;-61
2023/02/06 13:25:17;;;;;;;;;;;;;;;;;;4971477;28;20046;-61
2023/02/06 13:27:43;;;;;;;8.63;4.93;;;;;;;;;;4996649;28;20377;-61
2023/02/06 13:30:26;;;;;;;8.70;4.50;;;;;;;;;;4987909;28;20069;-60
2023/02/06 13:32:54;;;;;;;7.55;4.63;;;;;;;;;;4990380;28;20021;-63
2023/02/06 13:35:21;;;;;;;6.18;3.88;;;;;;;;;;4992788;28;20026;-61
2023/02/06 13:37:48;;;;;;;7.57;4.57;;;;;;;;;;4990275;28;20125;-61
2023/02/06 13:40:22;;;;;;;9.70;4.63;;;;;;;;;;4997137;28;20038;-61
2023/02/06 13:42:50;;;;;;;7.38;4.15;;;;;;;;;;4998999;28;20034;-61
2023/02/06 13:45:23;;;;;;;7.53;4.10;;;;;;;;;;4994698;28;20022;-61
2023/02/06 13:48:01;;;;;;;8.02;4.03;;;;;;;;;;4999244;28;20126;-61
2023/02/06 13:50:30;;;;;;;8.43;4.20;;;;;;;;;;4991995;28;20030;-61
2023/02/06 13:53:01;;;;;;;7.20;4.50;;;;;;;;;;4993200;28;20053;-61
2023/02/06 13:55:45;;;;;;;6.88;4.10;;;;;;;;;;4999587;28;20397;-61
2023/02/06 13:58:19;;;;;;;8.55;5.05;;;;;;;;;;5001655;28;20145;-61
2023/02/06 14:00:46;;;;;;;7.32;4.07;;;;;;;;;;4984276;28;20532;-61
2023/02/06 14:03:15;;;;;;;7.85;3.95;;;;;;;;;;4980178;28;20038;-62
2023/02/06 14:05:59;;;;;;;7.70;4.20;;;;;;;;;;4975129;28;20031;-61
2023/02/06 14:08:24;;;;;;;7.13;4.25;;;;;;;;;;4980809;28;20411;-61
2023/02/06 14:14:13;;;;;;;7.35;3.95;;;;;;;;;;4987272;28;20041;-61
2023/02/06 14:16:57;;;;;;;5.82;3.85;;;;;;;;;;4972277;28;20462;-62
2023/02/06 14:19:34;;;;;;;6.55;3.88;;;;;;;;;;4978764;28;20030;-61
2023/02/06 14:22:15;;;;;;;6.70;4.07;;;;;;;;;;4974775;28;20505;-61
2023/02/06 14:25:03;;;;;;;7.78;4.00;;;;;;;;;;4977420;28;20041;-61
2023/02/06 14:27:43;;;;;;;7.35;3.80;;;;;;;;;;4981815;28;20034;-61
2023/02/06 14:30:17;;;;;;;9.65;4.65;;;;;;;;;;4977240;28;20128;-61
2023/02/06 14:33:18;;;;;;;8.52;4.78;;;;;;;;;;4975668;28;20022;-61
2023/02/06 14:35:56;;;;;;;6.47;4.47;;;;;;;;;;4979464;28;20397;-61
2023/02/06 14:38:24;;;;;;;9.45;4.00;;;;;;;;;;4976277;28;20116;-61